sensor_id;sensor_type;location;lat;lon;timestamp;P1;durP1;ratioP1;P2;durP2;ratioP2
54743;SDS011;40639;53.170;6.728;2022-12-18T00:01:40;51.00;;;20.33;;
54743;SDS011;40639;53.170;6.728;2022-12-18T00:04:07;48.75;;;21.40;;
54743;SDS011;40639;53.170;6.728;2022-12-18T00:06:34;46.47;;;21.17;;
54743;SDS011;40639;53.170;6.728;2022-12-18T00:09:01;49.05;;;20.40;;
54743;SDS011;40639;53.170;6.728;2022-12-18T00:11:28;49.05;;;20.63;;
54743;SDS011;40639;53.170;6.728;2022-12-18T00:13:55;42.40;;;19.95;;
54743;SDS011;40639;53.170;6.728;2022-12-18T00:16:22;58.92;;;21.80;;
54743;SDS011;40639;53.170;6.728;2022-12-18T00:18:49;52.55;;;20.23;;
54743;SDS011;40639;53.170;6.728;2022-12-18T00:21:16;42.15;;;19.73;;
54743;SDS011;40639;53.170;6.728;2022-12-18T00:23:43;47.88;;;20.17;;
54743;SDS011;40639;53.170;6.728;2022-12-18T00:26:13;50.20;;;19.25;;
54743;SDS011;40639;53.170;6.728;2022-12-18T00:28:40;50.30;;;20.58;;
54743;SDS011;40639;53.170;6.728;2022-12-18T00:31:07;48.30;;;19.92;;
54743;SDS011;40639;53.170;6.728;2022-12-18T00:33:34;50.03;;;20.67;;
54743;SDS011;40639;53.170;6.728;2022-12-18T00:36:09;51.78;;;21.05;;
54743;SDS011;40639;53.170;6.728;2022-12-18T00:38:36;49.92;;;21.60;;
54743;SDS011;40639;53.170;6.728;2022-12-18T00:41:02;53.72;;;20.92;;
54743;SDS011;40639;53.170;6.728;2022-12-18T00:43:29;58.53;;;23.38;;
54743;SDS011;40639;53.170;6.728;2022-12-18T00:45:55;54.55;;;23.20;;
54743;SDS011;40639;53.170;6.728;2022-12-18T00:48:21;62.63;;;24.55;;
54743;SDS011;40639;53.170;6.728;2022-12-18T00:50:48;61.05;;;24.00;;
54743;SDS011;40639;53.170;6.728;2022-12-18T00:53:14;59.25;;;22.73;;
54743;SDS011;40639;53.170;6.728;2022-12-18T00:55:40;58.35;;;24.75;;
54743;SDS011;40639;53.170;6.728;2022-12-18T00:58:07;53.55;;;22.92;;
54743;SDS011;40639;53.170;6.728;2022-12-18T01:00:34;53.55;;;21.90;;
54743;SDS011;40639;53.170;6.728;2022-12-18T01:03:00;53.42;;;23.00;;
54743;SDS011;40639;53.170;6.728;2022-12-18T01:05:26;52.05;;;21.25;;
54743;SDS011;40639;53.170;6.728;2022-12-18T01:07:52;49.28;;;21.67;;
54743;SDS011;40639;53.170;6.728;2022-12-18T01:10:19;45.38;;;18.95;;
54743;SDS011;40639;53.170;6.728;2022-12-18T01:12:45;46.25;;;18.85;;
54743;SDS011;40639;53.170;6.728;2022-12-18T01:15:11;48.60;;;20.83;;
54743;SDS011;40639;53.170;6.728;2022-12-18T01:17:38;48.97;;;20.02;;
54743;SDS011;40639;53.170;6.728;2022-12-18T01:20:04;59.03;;;23.55;;
54743;SDS011;40639;53.170;6.728;2022-12-18T01:22:30;45.00;;;18.45;;
54743;SDS011;40639;53.170;6.728;2022-12-18T01:24:56;46.65;;;19.90;;
54743;SDS011;40639;53.170;6.728;2022-12-18T01:27:22;45.17;;;19.52;;
54743;SDS011;40639;53.170;6.728;2022-12-18T01:29:49;50.80;;;21.05;;
54743;SDS011;40639;53.170;6.728;2022-12-18T01:32:15;51.00;;;19.38;;
54743;SDS011;40639;53.170;6.728;2022-12-18T01:34:41;51.28;;;18.98;;
54743;SDS011;40639;53.170;6.728;2022-12-18T01:37:07;50.83;;;19.83;;
54743;SDS011;40639;53.170;6.728;2022-12-18T01:39:34;50.97;;;21.77;;
54743;SDS011;40639;53.170;6.728;2022-12-18T01:42:00;52.88;;;21.42;;
54743;SDS011;40639;53.170;6.728;2022-12-18T01:49:48;51.22;;;20.40;;
54743;SDS011;40639;53.170;6.728;2022-12-18T01:52:14;53.72;;;20.95;;
54743;SDS011;40639;53.170;6.728;2022-12-18T01:54:41;49.17;;;20.02;;
54743;SDS011;40639;53.170;6.728;2022-12-18T01:57:07;52.45;;;21.73;;
54743;SDS011;40639;53.170;6.728;2022-12-18T01:59:33;52.75;;;22.35;;
54743;SDS011;40639;53.170;6.728;2022-12-18T02:02:00;60.00;;;25.27;;
54743;SDS011;40639;53.170;6.728;2022-12-18T02:04:27;55.20;;;23.63;;
54743;SDS011;40639;53.170;6.728;2022-12-18T02:07:13;53.08;;;22.10;;
54743;SDS011;40639;53.170;6.728;2022-12-18T02:09:43;59.08;;;21.92;;
54743;SDS011;40639;53.170;6.728;2022-12-18T02:12:19;60.05;;;23.33;;
54743;SDS011;40639;53.170;6.728;2022-12-18T02:17:42;56.25;;;20.90;;
54743;SDS011;40639;53.170;6.728;2022-12-18T02:27:34;60.25;;;22.63;;
54743;SDS011;40639;53.170;6.728;2022-12-18T02:30:03;60.03;;;23.42;;
54743;SDS011;40639;53.170;6.728;2022-12-18T02:32:39;55.25;;;22.35;;
54743;SDS011;40639;53.170;6.728;2022-12-18T02:35:15;61.35;;;22.95;;
54743;SDS011;40639;53.170;6.728;2022-12-18T02:37:43;61.75;;;22.58;;
54743;SDS011;40639;53.170;6.728;2022-12-18T02:40:09;57.78;;;22.10;;
54743;SDS011;40639;53.170;6.728;2022-12-18T02:42:37;55.88;;;22.77;;
54743;SDS011;40639;53.170;6.728;2022-12-18T02:45:03;54.55;;;21.52;;
54743;SDS011;40639;53.170;6.728;2022-12-18T02:47:31;55.83;;;21.75;;
54743;SDS011;40639;53.170;6.728;2022-12-18T02:50:05;52.38;;;21.92;;
54743;SDS011;40639;53.170;6.728;2022-12-18T03:00:06;60.90;;;23.63;;
54743;SDS011;40639;53.170;6.728;2022-12-18T03:05:13;55.72;;;23.20;;
54743;SDS011;40639;53.170;6.728;2022-12-18T03:07:49;63.38;;;22.65;;
54743;SDS011;40639;53.170;6.728;2022-12-18T03:10:19;52.42;;;22.55;;
54743;SDS011;40639;53.170;6.728;2022-12-18T03:12:49;56.55;;;23.40;;
54743;SDS011;40639;53.170;6.728;2022-12-18T03:15:19;57.60;;;26.17;;
54743;SDS011;40639;53.170;6.728;2022-12-18T03:17:50;59.92;;;24.50;;
54743;SDS011;40639;53.170;6.728;2022-12-18T03:20:18;53.88;;;23.50;;
54743;SDS011;40639;53.170;6.728;2022-12-18T03:22:46;57.25;;;24.40;;
54743;SDS011;40639;53.170;6.728;2022-12-18T03:25:13;56.42;;;23.27;;
54743;SDS011;40639;53.170;6.728;2022-12-18T03:27:42;65.43;;;24.85;;
54743;SDS011;40639;53.170;6.728;2022-12-18T03:30:10;56.42;;;24.67;;
54743;SDS011;40639;53.170;6.728;2022-12-18T03:35:10;63.47;;;23.98;;
54743;SDS011;40639;53.170;6.728;2022-12-18T03:37:38;57.70;;;24.15;;
54743;SDS011;40639;53.170;6.728;2022-12-18T03:40:05;56.17;;;25.10;;
54743;SDS011;40639;53.170;6.728;2022-12-18T03:42:42;60.47;;;25.25;;
54743;SDS011;40639;53.170;6.728;2022-12-18T03:45:14;59.92;;;23.67;;
54743;SDS011;40639;53.170;6.728;2022-12-18T03:52:51;59.08;;;24.05;;
54743;SDS011;40639;53.170;6.728;2022-12-18T03:55:18;59.80;;;24.33;;
54743;SDS011;40639;53.170;6.728;2022-12-18T03:57:45;55.35;;;23.05;;
54743;SDS011;40639;53.170;6.728;2022-12-18T04:00:13;56.90;;;23.17;;
54743;SDS011;40639;53.170;6.728;2022-12-18T04:02:42;54.33;;;25.70;;
54743;SDS011;40639;53.170;6.728;2022-12-18T04:05:09;54.72;;;23.45;;
54743;SDS011;40639;53.170;6.728;2022-12-18T04:07:36;59.92;;;25.13;;
54743;SDS011;40639;53.170;6.728;2022-12-18T04:10:04;59.00;;;22.98;;
54743;SDS011;40639;53.170;6.728;2022-12-18T04:12:32;58.33;;;25.15;;
54743;SDS011;40639;53.170;6.728;2022-12-18T04:14:58;57.42;;;24.48;;
54743;SDS011;40639;53.170;6.728;2022-12-18T04:17:24;59.00;;;23.60;;
54743;SDS011;40639;53.170;6.728;2022-12-18T04:19:50;56.22;;;22.95;;
54743;SDS011;40639;53.170;6.728;2022-12-18T04:22:16;53.92;;;23.30;;
54743;SDS011;40639;53.170;6.728;2022-12-18T04:24:43;53.72;;;24.67;;
54743;SDS011;40639;53.170;6.728;2022-12-18T04:27:09;60.58;;;23.40;;
54743;SDS011;40639;53.170;6.728;2022-12-18T04:29:35;55.80;;;24.35;;
54743;SDS011;40639;53.170;6.728;2022-12-18T04:32:01;49.95;;;20.98;;
54743;SDS011;40639;53.170;6.728;2022-12-18T04:34:27;56.40;;;22.88;;
54743;SDS011;40639;53.170;6.728;2022-12-18T04:36:53;53.78;;;21.20;;
54743;SDS011;40639;53.170;6.728;2022-12-18T04:39:19;52.15;;;21.90;;
54743;SDS011;40639;53.170;6.728;2022-12-18T04:41:45;45.13;;;20.70;;
54743;SDS011;40639;53.170;6.728;2022-12-18T04:44:12;46.53;;;20.48;;
54743;SDS011;40639;53.170;6.728;2022-12-18T04:46:38;50.47;;;21.25;;
54743;SDS011;40639;53.170;6.728;2022-12-18T04:49:04;55.25;;;21.30;;
54743;SDS011;40639;53.170;6.728;2022-12-18T04:53:56;49.97;;;21.42;;
54743;SDS011;40639;53.170;6.728;2022-12-18T04:56:22;46.13;;;19.52;;
54743;SDS011;40639;53.170;6.728;2022-12-18T04:58:48;47.47;;;22.15;;
54743;SDS011;40639;53.170;6.728;2022-12-18T05:01:15;52.03;;;21.17;;
54743;SDS011;40639;53.170;6.728;2022-12-18T05:03:41;53.70;;;22.15;;
54743;SDS011;40639;53.170;6.728;2022-12-18T05:06:07;48.58;;;22.42;;
54743;SDS011;40639;53.170;6.728;2022-12-18T05:08:33;47.10;;;20.00;;
54743;SDS011;40639;53.170;6.728;2022-12-18T05:11:00;52.97;;;19.92;;
54743;SDS011;40639;53.170;6.728;2022-12-18T05:13:27;52.10;;;21.70;;
54743;SDS011;40639;53.170;6.728;2022-12-18T05:15:53;48.63;;;22.90;;
54743;SDS011;40639;53.170;6.728;2022-12-18T05:18:20;49.05;;;20.77;;
54743;SDS011;40639;53.170;6.728;2022-12-18T05:20:46;49.75;;;21.80;;
54743;SDS011;40639;53.170;6.728;2022-12-18T05:23:12;49.38;;;20.95;;
54743;SDS011;40639;53.170;6.728;2022-12-18T05:25:38;48.60;;;20.63;;
54743;SDS011;40639;53.170;6.728;2022-12-18T05:28:04;50.85;;;21.50;;
54743;SDS011;40639;53.170;6.728;2022-12-18T05:32:56;45.55;;;20.20;;
54743;SDS011;40639;53.170;6.728;2022-12-18T05:37:48;40.92;;;18.90;;
54743;SDS011;40639;53.170;6.728;2022-12-18T05:40:14;45.63;;;20.50;;
54743;SDS011;40639;53.170;6.728;2022-12-18T05:42:40;37.00;;;17.50;;
54743;SDS011;40639;53.170;6.728;2022-12-18T05:45:07;43.65;;;18.33;;
54743;SDS011;40639;53.170;6.728;2022-12-18T05:47:33;35.30;;;17.20;;
54743;SDS011;40639;53.170;6.728;2022-12-18T05:49:59;38.22;;;17.52;;
54743;SDS011;40639;53.170;6.728;2022-12-18T05:54:51;32.88;;;16.30;;
54743;SDS011;40639;53.170;6.728;2022-12-18T05:59:43;37.75;;;17.48;;
54743;SDS011;40639;53.170;6.728;2022-12-18T06:04:35;41.70;;;18.30;;
54743;SDS011;40639;53.170;6.728;2022-12-18T06:07:01;39.40;;;16.60;;
54743;SDS011;40639;53.170;6.728;2022-12-18T06:09:28;38.33;;;15.80;;
54743;SDS011;40639;53.170;6.728;2022-12-18T06:11:54;34.33;;;16.33;;
54743;SDS011;40639;53.170;6.728;2022-12-18T06:16:46;31.05;;;15.15;;
54743;SDS011;40639;53.170;6.728;2022-12-18T06:19:15;36.95;;;17.05;;
54743;SDS011;40639;53.170;6.728;2022-12-18T06:21:42;34.28;;;15.05;;
54743;SDS011;40639;53.170;6.728;2022-12-18T06:24:08;31.73;;;15.98;;
54743;SDS011;40639;53.170;6.728;2022-12-18T06:26:34;35.53;;;15.93;;
54743;SDS011;40639;53.170;6.728;2022-12-18T06:29:02;30.40;;;14.75;;
54743;SDS011;40639;53.170;6.728;2022-12-18T06:31:28;33.97;;;15.82;;
54743;SDS011;40639;53.170;6.728;2022-12-18T06:33:54;34.25;;;16.00;;
54743;SDS011;40639;53.170;6.728;2022-12-18T06:38:46;35.50;;;15.27;;
54743;SDS011;40639;53.170;6.728;2022-12-18T06:41:16;31.58;;;14.73;;
54743;SDS011;40639;53.170;6.728;2022-12-18T06:43:43;30.38;;;15.52;;
54743;SDS011;40639;53.170;6.728;2022-12-18T06:46:09;34.58;;;15.90;;
54743;SDS011;40639;53.170;6.728;2022-12-18T06:48:35;32.38;;;14.25;;
54743;SDS011;40639;53.170;6.728;2022-12-18T06:51:02;31.65;;;15.88;;
54743;SDS011;40639;53.170;6.728;2022-12-18T06:53:28;33.58;;;15.90;;
54743;SDS011;40639;53.170;6.728;2022-12-18T06:56:05;29.10;;;15.10;;
54743;SDS011;40639;53.170;6.728;2022-12-18T06:58:31;31.45;;;15.10;;
54743;SDS011;40639;53.170;6.728;2022-12-18T07:01:01;32.92;;;14.95;;
54743;SDS011;40639;53.170;6.728;2022-12-18T07:03:27;34.28;;;15.43;;
54743;SDS011;40639;53.170;6.728;2022-12-18T07:05:54;31.55;;;14.70;;
54743;SDS011;40639;53.170;6.728;2022-12-18T07:08:20;33.72;;;15.05;;
54743;SDS011;40639;53.170;6.728;2022-12-18T07:10:46;33.58;;;14.52;;
54743;SDS011;40639;53.170;6.728;2022-12-18T07:13:14;31.05;;;15.15;;
54743;SDS011;40639;53.170;6.728;2022-12-18T07:15:40;33.10;;;15.18;;
54743;SDS011;40639;53.170;6.728;2022-12-18T07:18:07;32.00;;;14.23;;
54743;SDS011;40639;53.170;6.728;2022-12-18T07:20:33;31.35;;;14.48;;
54743;SDS011;40639;53.170;6.728;2022-12-18T07:23:01;30.50;;;14.43;;
54743;SDS011;40639;53.170;6.728;2022-12-18T07:25:27;33.45;;;15.95;;
54743;SDS011;40639;53.170;6.728;2022-12-18T07:27:54;32.50;;;15.57;;
54743;SDS011;40639;53.170;6.728;2022-12-18T07:30:20;27.80;;;13.93;;
54743;SDS011;40639;53.170;6.728;2022-12-18T07:32:46;29.83;;;14.43;;
54743;SDS011;40639;53.170;6.728;2022-12-18T07:35:12;27.80;;;13.35;;
54743;SDS011;40639;53.170;6.728;2022-12-18T07:37:38;31.55;;;14.68;;
54743;SDS011;40639;53.170;6.728;2022-12-18T07:42:31;24.30;;;13.07;;
54743;SDS011;40639;53.170;6.728;2022-12-18T07:44:57;32.35;;;14.00;;
54743;SDS011;40639;53.170;6.728;2022-12-18T07:47:24;29.70;;;13.00;;
54743;SDS011;40639;53.170;6.728;2022-12-18T07:49:50;29.17;;;13.75;;
54743;SDS011;40639;53.170;6.728;2022-12-18T07:52:16;25.92;;;14.90;;
54743;SDS011;40639;53.170;6.728;2022-12-18T07:54:43;30.85;;;14.55;;
54743;SDS011;40639;53.170;6.728;2022-12-18T07:57:09;26.85;;;13.15;;
54743;SDS011;40639;53.170;6.728;2022-12-18T07:59:35;26.70;;;12.57;;
54743;SDS011;40639;53.170;6.728;2022-12-18T08:02:01;26.55;;;13.55;;
54743;SDS011;40639;53.170;6.728;2022-12-18T08:04:28;25.38;;;12.57;;
54743;SDS011;40639;53.170;6.728;2022-12-18T08:06:54;27.50;;;13.40;;
54743;SDS011;40639;53.170;6.728;2022-12-18T08:09:20;26.83;;;13.85;;
54743;SDS011;40639;53.170;6.728;2022-12-18T08:11:46;26.88;;;12.77;;
54743;SDS011;40639;53.170;6.728;2022-12-18T08:14:12;27.08;;;14.00;;
54743;SDS011;40639;53.170;6.728;2022-12-18T08:16:39;27.02;;;14.45;;
54743;SDS011;40639;53.170;6.728;2022-12-18T08:19:05;23.52;;;13.02;;
54743;SDS011;40639;53.170;6.728;2022-12-18T08:21:31;27.15;;;12.85;;
54743;SDS011;40639;53.170;6.728;2022-12-18T08:23:58;26.80;;;14.77;;
54743;SDS011;40639;53.170;6.728;2022-12-18T08:26:26;23.52;;;13.05;;
54743;SDS011;40639;53.170;6.728;2022-12-18T08:28:53;21.02;;;12.43;;
54743;SDS011;40639;53.170;6.728;2022-12-18T08:31:19;25.65;;;12.93;;
54743;SDS011;40639;53.170;6.728;2022-12-18T08:33:48;24.15;;;13.40;;
54743;SDS011;40639;53.170;6.728;2022-12-18T08:36:14;24.23;;;12.27;;
54743;SDS011;40639;53.170;6.728;2022-12-18T08:38:40;27.50;;;13.48;;
54743;SDS011;40639;53.170;6.728;2022-12-18T08:41:08;24.02;;;12.45;;
54743;SDS011;40639;53.170;6.728;2022-12-18T08:43:34;26.75;;;12.73;;
54743;SDS011;40639;53.170;6.728;2022-12-18T08:46:20;23.83;;;11.73;;
54743;SDS011;40639;53.170;6.728;2022-12-18T08:48:46;27.48;;;12.80;;
54743;SDS011;40639;53.170;6.728;2022-12-18T08:51:12;24.05;;;12.75;;
54743;SDS011;40639;53.170;6.728;2022-12-18T08:53:38;25.92;;;12.52;;
54743;SDS011;40639;53.170;6.728;2022-12-18T08:56:05;20.60;;;11.00;;
54743;SDS011;40639;53.170;6.728;2022-12-18T08:58:31;22.08;;;10.40;;
54743;SDS011;40639;53.170;6.728;2022-12-18T09:01:04;20.40;;;10.23;;
54743;SDS011;40639;53.170;6.728;2022-12-18T09:03:30;21.10;;;11.20;;
54743;SDS011;40639;53.170;6.728;2022-12-18T09:05:58;24.38;;;11.63;;
54743;SDS011;40639;53.170;6.728;2022-12-18T09:08:24;21.73;;;11.73;;
54743;SDS011;40639;53.170;6.728;2022-12-18T09:10:51;22.05;;;10.90;;
54743;SDS011;40639;53.170;6.728;2022-12-18T09:13:17;19.75;;;10.40;;
54743;SDS011;40639;53.170;6.728;2022-12-18T09:15:45;20.45;;;10.23;;
54743;SDS011;40639;53.170;6.728;2022-12-18T09:18:11;24.35;;;11.80;;
54743;SDS011;40639;53.170;6.728;2022-12-18T09:20:38;23.65;;;10.98;;
54743;SDS011;40639;53.170;6.728;2022-12-18T09:23:04;21.20;;;11.38;;
54743;SDS011;40639;53.170;6.728;2022-12-18T09:25:30;19.00;;;10.48;;
54743;SDS011;40639;53.170;6.728;2022-12-18T09:27:58;21.45;;;10.73;;
54743;SDS011;40639;53.170;6.728;2022-12-18T09:30:25;20.95;;;10.48;;
54743;SDS011;40639;53.170;6.728;2022-12-18T09:32:54;16.98;;;10.35;;
54743;SDS011;40639;53.170;6.728;2022-12-18T09:35:20;16.25;;;9.60;;
54743;SDS011;40639;53.170;6.728;2022-12-18T09:37:46;17.27;;;8.20;;
54743;SDS011;40639;53.170;6.728;2022-12-18T09:40:16;22.15;;;10.10;;
54743;SDS011;40639;53.170;6.728;2022-12-18T09:42:44;15.98;;;9.00;;
54743;SDS011;40639;53.170;6.728;2022-12-18T09:45:12;15.85;;;8.57;;
54743;SDS011;40639;53.170;6.728;2022-12-18T09:47:39;19.33;;;8.35;;
54743;SDS011;40639;53.170;6.728;2022-12-18T09:50:16;19.92;;;7.63;;
54743;SDS011;40639;53.170;6.728;2022-12-18T09:52:46;15.20;;;7.75;;
54743;SDS011;40639;53.170;6.728;2022-12-18T09:57:42;12.77;;;7.72;;
54743;SDS011;40639;53.170;6.728;2022-12-18T10:02:36;14.77;;;8.40;;
54743;SDS011;40639;53.170;6.728;2022-12-18T10:05:04;14.70;;;7.47;;
54743;SDS011;40639;53.170;6.728;2022-12-18T10:07:37;15.35;;;8.10;;
54743;SDS011;40639;53.170;6.728;2022-12-18T10:12:54;12.93;;;7.70;;
54743;SDS011;40639;53.170;6.728;2022-12-18T10:15:24;11.50;;;6.80;;
54743;SDS011;40639;53.170;6.728;2022-12-18T10:20:22;20.40;;;8.48;;
54743;SDS011;40639;53.170;6.728;2022-12-18T10:22:53;17.58;;;8.20;;
54743;SDS011;40639;53.170;6.728;2022-12-18T10:25:26;13.85;;;7.00;;
54743;SDS011;40639;53.170;6.728;2022-12-18T10:27:58;13.88;;;6.72;;
54743;SDS011;40639;53.170;6.728;2022-12-18T10:30:26;12.98;;;6.68;;
54743;SDS011;40639;53.170;6.728;2022-12-18T10:32:52;10.75;;;6.03;;
54743;SDS011;40639;53.170;6.728;2022-12-18T10:35:24;13.00;;;6.85;;
54743;SDS011;40639;53.170;6.728;2022-12-18T10:38:00;13.02;;;6.05;;
54743;SDS011;40639;53.170;6.728;2022-12-18T10:40:27;14.27;;;6.88;;
54743;SDS011;40639;53.170;6.728;2022-12-18T10:51:35;21.88;;;6.82;;
54743;SDS011;40639;53.170;6.728;2022-12-18T10:54:07;21.08;;;7.00;;
54743;SDS011;40639;53.170;6.728;2022-12-18T10:59:06;14.50;;;6.00;;
54743;SDS011;40639;53.170;6.728;2022-12-18T11:01:45;14.30;;;6.18;;
54743;SDS011;40639;53.170;6.728;2022-12-18T11:04:13;13.75;;;6.43;;
54743;SDS011;40639;53.170;6.728;2022-12-18T11:06:54;19.23;;;7.05;;
54743;SDS011;40639;53.170;6.728;2022-12-18T11:11:48;19.50;;;6.97;;
54743;SDS011;40639;53.170;6.728;2022-12-18T11:14:18;18.10;;;6.45;;
54743;SDS011;40639;53.170;6.728;2022-12-18T11:16:46;20.33;;;6.32;;
54743;SDS011;40639;53.170;6.728;2022-12-18T11:19:21;16.25;;;6.32;;
54743;SDS011;40639;53.170;6.728;2022-12-18T11:21:49;12.63;;;6.03;;
54743;SDS011;40639;53.170;6.728;2022-12-18T11:24:36;11.77;;;5.20;;
54743;SDS011;40639;53.170;6.728;2022-12-18T11:27:02;10.45;;;4.53;;
54743;SDS011;40639;53.170;6.728;2022-12-18T11:29:33;9.43;;;4.80;;
54743;SDS011;40639;53.170;6.728;2022-12-18T11:32:19;8.35;;;4.93;;
54743;SDS011;40639;53.170;6.728;2022-12-18T11:34:48;11.88;;;5.72;;
54743;SDS011;40639;53.170;6.728;2022-12-18T11:37:15;12.40;;;5.22;;
54743;SDS011;40639;53.170;6.728;2022-12-18T11:45:47;10.07;;;4.32;;
54743;SDS011;40639;53.170;6.728;2022-12-18T11:48:29;9.55;;;4.82;;
54743;SDS011;40639;53.170;6.728;2022-12-18T11:50:59;10.07;;;4.60;;
54743;SDS011;40639;53.170;6.728;2022-12-18T11:53:27;7.40;;;4.03;;
54743;SDS011;40639;53.170;6.728;2022-12-18T11:56:05;9.90;;;4.38;;
54743;SDS011;40639;53.170;6.728;2022-12-18T12:01:09;9.43;;;4.78;;
54743;SDS011;40639;53.170;6.728;2022-12-18T12:06:15;11.37;;;3.80;;
54743;SDS011;40639;53.170;6.728;2022-12-18T12:08:58;7.65;;;4.00;;
54743;SDS011;40639;53.170;6.728;2022-12-18T12:14:12;9.55;;;3.90;;
54743;SDS011;40639;53.170;6.728;2022-12-18T12:19:19;7.85;;;3.58;;
54743;SDS011;40639;53.170;6.728;2022-12-18T12:21:52;8.57;;;4.25;;
54743;SDS011;40639;53.170;6.728;2022-12-18T12:27:11;7.60;;;4.25;;
54743;SDS011;40639;53.170;6.728;2022-12-18T12:29:54;8.70;;;4.50;;
54743;SDS011;40639;53.170;6.728;2022-12-18T12:40:23;7.57;;;3.85;;
54743;SDS011;40639;53.170;6.728;2022-12-18T12:42:58;12.68;;;5.05;;
54743;SDS011;40639;53.170;6.728;2022-12-18T12:45:51;9.23;;;4.68;;
54743;SDS011;40639;53.170;6.728;2022-12-18T12:50:51;6.43;;;4.07;;
54743;SDS011;40639;53.170;6.728;2022-12-18T12:53:32;8.40;;;4.50;;
54743;SDS011;40639;53.170;6.728;2022-12-18T12:56:00;7.88;;;4.38;;
54743;SDS011;40639;53.170;6.728;2022-12-18T13:01:22;7.63;;;4.20;;
54743;SDS011;40639;53.170;6.728;2022-12-18T13:09:15;7.50;;;3.97;;
54743;SDS011;40639;53.170;6.728;2022-12-18T13:11:42;7.25;;;3.92;;
54743;SDS011;40639;53.170;6.728;2022-12-18T13:14:34;8.03;;;4.27;;
54743;SDS011;40639;53.170;6.728;2022-12-18T13:25:01;7.35;;;4.03;;
54743;SDS011;40639;53.170;6.728;2022-12-18T13:30:41;7.45;;;4.53;;
54743;SDS011;40639;53.170;6.728;2022-12-18T13:33:49;7.97;;;4.10;;
54743;SDS011;40639;53.170;6.728;2022-12-18T13:43:27;7.68;;;3.92;;
54743;SDS011;40639;53.170;6.728;2022-12-18T13:46:05;10.15;;;4.47;;
54743;SDS011;40639;53.170;6.728;2022-12-18T13:48:34;7.80;;;3.92;;
54743;SDS011;40639;53.170;6.728;2022-12-18T13:51:03;6.70;;;4.10;;
54743;SDS011;40639;53.170;6.728;2022-12-18T13:53:34;8.85;;;4.60;;
54743;SDS011;40639;53.170;6.728;2022-12-18T13:56:02;5.95;;;3.53;;
54743;SDS011;40639;53.170;6.728;2022-12-18T13:58:28;10.23;;;4.07;;
54743;SDS011;40639;53.170;6.728;2022-12-18T14:00:54;6.65;;;3.65;;
54743;SDS011;40639;53.170;6.728;2022-12-18T14:03:22;7.93;;;3.88;;
54743;SDS011;40639;53.170;6.728;2022-12-18T14:06:01;7.25;;;4.45;;
54743;SDS011;40639;53.170;6.728;2022-12-18T14:08:32;7.82;;;4.20;;
54743;SDS011;40639;53.170;6.728;2022-12-18T14:10:58;10.98;;;4.45;;
54743;SDS011;40639;53.170;6.728;2022-12-18T14:13:29;10.13;;;5.50;;
54743;SDS011;40639;53.170;6.728;2022-12-18T14:15:56;9.80;;;5.25;;
54743;SDS011;40639;53.170;6.728;2022-12-18T14:21:16;9.40;;;4.60;;
54743;SDS011;40639;53.170;6.728;2022-12-18T14:23:43;7.85;;;4.50;;
54743;SDS011;40639;53.170;6.728;2022-12-18T14:26:28;10.93;;;6.00;;
54743;SDS011;40639;53.170;6.728;2022-12-18T14:28:59;9.63;;;5.47;;
54743;SDS011;40639;53.170;6.728;2022-12-18T14:31:29;9.98;;;6.05;;
54743;SDS011;40639;53.170;6.728;2022-12-18T14:33:56;12.93;;;5.80;;
54743;SDS011;40639;53.170;6.728;2022-12-18T14:36:23;11.23;;;6.00;;
54743;SDS011;40639;53.170;6.728;2022-12-18T14:38:54;11.65;;;5.65;;
54743;SDS011;40639;53.170;6.728;2022-12-18T14:41:20;11.18;;;6.45;;
54743;SDS011;40639;53.170;6.728;2022-12-18T14:43:48;12.40;;;7.35;;
54743;SDS011;40639;53.170;6.728;2022-12-18T14:48:50;16.08;;;8.57;;
54743;SDS011;40639;53.170;6.728;2022-12-18T14:51:26;15.50;;;8.90;;
54743;SDS011;40639;53.170;6.728;2022-12-18T14:53:53;17.10;;;8.98;;
54743;SDS011;40639;53.170;6.728;2022-12-18T14:56:27;13.93;;;7.90;;
54743;SDS011;40639;53.170;6.728;2022-12-18T14:59:01;13.75;;;8.40;;
54743;SDS011;40639;53.170;6.728;2022-12-18T15:01:33;17.35;;;8.70;;
54743;SDS011;40639;53.170;6.728;2022-12-18T15:04:00;15.43;;;8.77;;
54743;SDS011;40639;53.170;6.728;2022-12-18T15:06:31;15.20;;;8.20;;
54743;SDS011;40639;53.170;6.728;2022-12-18T15:08:59;14.00;;;8.02;;
54743;SDS011;40639;53.170;6.728;2022-12-18T15:11:45;14.65;;;7.93;;
54743;SDS011;40639;53.170;6.728;2022-12-18T15:14:30;17.27;;;8.20;;
54743;SDS011;40639;53.170;6.728;2022-12-18T15:16:57;14.82;;;8.00;;
54743;SDS011;40639;53.170;6.728;2022-12-18T15:19:32;14.68;;;7.57;;
54743;SDS011;40639;53.170;6.728;2022-12-18T15:22:00;11.05;;;6.75;;
54743;SDS011;40639;53.170;6.728;2022-12-18T15:24:27;15.90;;;7.13;;
54743;SDS011;40639;53.170;6.728;2022-12-18T15:26:55;14.90;;;8.60;;
54743;SDS011;40639;53.170;6.728;2022-12-18T15:29:21;12.23;;;6.53;;
54743;SDS011;40639;53.170;6.728;2022-12-18T15:34:26;13.27;;;7.60;;
54743;SDS011;40639;53.170;6.728;2022-12-18T15:36:52;15.45;;;7.85;;
54743;SDS011;40639;53.170;6.728;2022-12-18T15:39:18;14.27;;;7.53;;
54743;SDS011;40639;53.170;6.728;2022-12-18T15:41:45;16.08;;;8.60;;
54743;SDS011;40639;53.170;6.728;2022-12-18T15:44:30;16.42;;;8.10;;
54743;SDS011;40639;53.170;6.728;2022-12-18T15:46:56;13.60;;;7.63;;
54743;SDS011;40639;53.170;6.728;2022-12-18T15:49:23;13.77;;;7.70;;
54743;SDS011;40639;53.170;6.728;2022-12-18T15:51:52;15.25;;;7.85;;
54743;SDS011;40639;53.170;6.728;2022-12-18T15:54:19;14.27;;;7.75;;
54743;SDS011;40639;53.170;6.728;2022-12-18T15:57:09;13.52;;;7.50;;
54743;SDS011;40639;53.170;6.728;2022-12-18T15:59:50;13.85;;;8.10;;
54743;SDS011;40639;53.170;6.728;2022-12-18T16:02:18;14.98;;;8.05;;
54743;SDS011;40639;53.170;6.728;2022-12-18T16:04:44;13.00;;;7.35;;
54743;SDS011;40639;53.170;6.728;2022-12-18T16:07:11;16.10;;;7.40;;
54743;SDS011;40639;53.170;6.728;2022-12-18T16:09:37;12.98;;;6.53;;
54743;SDS011;40639;53.170;6.728;2022-12-18T16:12:04;11.90;;;5.93;;
54743;SDS011;40639;53.170;6.728;2022-12-18T16:14:30;11.98;;;6.00;;
54743;SDS011;40639;53.170;6.728;2022-12-18T16:16:58;10.93;;;5.95;;
54743;SDS011;40639;53.170;6.728;2022-12-18T16:19:25;11.07;;;5.60;;
54743;SDS011;40639;53.170;6.728;2022-12-18T16:21:52;12.27;;;6.20;;
54743;SDS011;40639;53.170;6.728;2022-12-18T16:24:28;13.82;;;6.25;;
54743;SDS011;40639;53.170;6.728;2022-12-18T16:26:56;11.45;;;5.97;;
54743;SDS011;40639;53.170;6.728;2022-12-18T16:29:23;11.15;;;5.78;;
54743;SDS011;40639;53.170;6.728;2022-12-18T16:31:56;11.25;;;6.57;;
54743;SDS011;40639;53.170;6.728;2022-12-18T16:34:23;8.82;;;5.95;;
54743;SDS011;40639;53.170;6.728;2022-12-18T16:36:53;9.48;;;5.63;;
54743;SDS011;40639;53.170;6.728;2022-12-18T16:39:19;9.15;;;5.82;;
54743;SDS011;40639;53.170;6.728;2022-12-18T16:41:46;10.15;;;5.70;;
54743;SDS011;40639;53.170;6.728;2022-12-18T16:44:13;8.65;;;5.75;;
54743;SDS011;40639;53.170;6.728;2022-12-18T16:46:45;10.48;;;5.85;;
54743;SDS011;40639;53.170;6.728;2022-12-18T16:49:12;10.77;;;6.00;;
54743;SDS011;40639;53.170;6.728;2022-12-18T16:51:42;9.75;;;5.75;;
54743;SDS011;40639;53.170;6.728;2022-12-18T16:54:08;11.45;;;5.93;;
54743;SDS011;40639;53.170;6.728;2022-12-18T16:56:34;10.65;;;5.90;;
54743;SDS011;40639;53.170;6.728;2022-12-18T16:59:01;10.20;;;6.18;;
54743;SDS011;40639;53.170;6.728;2022-12-18T17:01:28;11.57;;;6.47;;